createdAt,value
2018-05-10T00:02:07.985Z,11.60
2018-05-10T00:04:36.236Z,11.60
2018-05-10T00:07:03.723Z,11.60
2018-05-10T00:09:31.985Z,11.60
2018-05-10T00:11:59.465Z,11.50
2018-05-10T00:14:27.732Z,11.60
2018-05-10T00:16:55.988Z,11.60
2018-05-10T00:19:23.547Z,11.50
2018-05-10T00:21:51.042Z,11.50
2018-05-10T00:24:18.617Z,11.50
2018-05-10T00:26:46.046Z,11.50
2018-05-10T00:29:14.310Z,11.40
2018-05-10T00:31:41.821Z,11.40
2018-05-10T00:34:09.315Z,11.40
2018-05-10T00:36:36.821Z,11.30
2018-05-10T00:39:04.305Z,11.30
2018-05-10T00:41:31.796Z,11.30
2018-05-10T00:43:59.312Z,11.20
2018-05-10T00:46:26.801Z,11.10
2018-05-10T00:48:54.318Z,11.10
2018-05-10T00:51:21.796Z,11.00
2018-05-10T00:53:49.314Z,11.00
2018-05-10T00:56:16.806Z,10.90
2018-05-10T00:58:44.283Z,10.90
2018-05-10T01:01:11.809Z,11.00
2018-05-10T01:03:39.306Z,11.00
2018-05-10T01:06:08.317Z,10.90
2018-05-10T01:08:36.557Z,10.90
2018-05-10T01:11:04.056Z,10.90
2018-05-10T01:13:32.302Z,10.90
2018-05-10T01:15:59.796Z,10.90
2018-05-10T01:18:28.078Z,10.90
2018-05-10T01:20:56.320Z,10.80
2018-05-10T01:23:24.585Z,10.70
2018-05-10T01:25:52.625Z,10.70
2018-05-10T01:28:20.172Z,10.70
2018-05-10T01:30:47.665Z,10.70
2018-05-10T01:33:15.148Z,10.60
2018-05-10T01:35:54.441Z,10.60
2018-05-10T01:38:21.936Z,10.50
2018-05-10T01:40:50.685Z,10.50
2018-05-10T01:43:18.205Z,10.40
2018-05-10T01:45:46.467Z,10.30
2018-05-10T01:48:13.967Z,10.30
2018-05-10T01:50:41.443Z,10.30
2018-05-10T01:53:08.933Z,10.20
2018-05-10T01:55:36.414Z,10.10
2018-05-10T01:58:04.685Z,10.10
2018-05-10T02:00:32.933Z,10.00
2018-05-10T02:03:00.432Z,10.00
2018-05-10T02:05:27.936Z,10.00
2018-05-10T02:07:55.436Z,10.00
2018-05-10T02:10:23.693Z,9.90
2018-05-10T02:12:51.169Z,9.80
2018-05-10T02:15:19.460Z,9.80
2018-05-10T02:17:47.705Z,9.70
2018-05-10T02:20:15.176Z,9.70
2018-05-10T02:22:43.434Z,9.60
2018-05-10T02:25:10.913Z,9.60
2018-05-10T02:27:39.176Z,9.50
2018-05-10T02:30:06.669Z,9.60
2018-05-10T02:32:34.181Z,9.50
2018-05-10T02:35:01.678Z,9.50
2018-05-10T02:37:29.172Z,9.40
2018-05-10T02:39:56.644Z,9.40
2018-05-10T02:42:24.139Z,9.40
2018-05-10T02:44:52.442Z,9.40
2018-05-10T02:47:20.682Z,9.30
2018-05-10T02:49:48.959Z,9.30
2018-05-10T02:52:17.235Z,9.30
2018-05-10T02:54:45.487Z,9.30
2018-05-10T02:57:12.995Z,9.30
2018-05-10T02:59:40.483Z,9.30
2018-05-10T03:02:07.981Z,9.20
2018-05-10T03:04:35.462Z,9.20
2018-05-10T03:07:02.980Z,9.10
2018-05-10T03:09:30.495Z,9.10
2018-05-10T03:11:57.995Z,9.10
2018-05-10T03:14:25.489Z,9.20
2018-05-10T03:16:53.743Z,9.20
2018-05-10T03:19:21.280Z,9.20
2018-05-10T03:21:48.774Z,9.10
2018-05-10T03:24:17.039Z,9.10
2018-05-10T03:26:45.322Z,9.20
2018-05-10T03:29:13.582Z,9.20
2018-05-10T03:31:41.116Z,9.10
2018-05-10T03:34:08.644Z,9.20
2018-05-10T03:36:36.294Z,9.10
2018-05-10T03:39:04.071Z,9.10
2018-05-10T03:41:31.732Z,9.00
2018-05-10T03:43:59.242Z,8.90
2018-05-10T03:46:26.879Z,8.60
2018-05-10T03:48:54.586Z,8.70
2018-05-10T03:51:22.938Z,8.50
2018-05-10T03:53:51.261Z,8.70
2018-05-10T03:56:18.794Z,8.60
2018-05-10T03:58:47.104Z,8.80
2018-05-10T04:01:14.686Z,8.80
2018-05-10T04:03:54.241Z,8.90
2018-05-10T04:06:33.579Z,8.90
2018-05-10T04:09:13.213Z,9.00
2018-05-10T04:11:41.587Z,9.00
2018-05-10T04:14:09.160Z,9.00
2018-05-10T04:16:36.675Z,9.10
2018-05-10T04:19:04.157Z,9.20
2018-05-10T04:21:31.659Z,9.30
2018-05-10T04:23:59.922Z,9.70
2018-05-10T04:26:27.427Z,9.70
2018-05-10T04:28:54.909Z,9.80
2018-05-10T04:31:22.392Z,9.80
2018-05-10T04:33:49.916Z,9.90
2018-05-10T04:36:17.446Z,9.90
2018-05-10T04:38:45.752Z,10.10
2018-05-10T04:41:13.267Z,10.10
2018-05-10T04:43:40.799Z,10.20
2018-05-10T04:46:08.322Z,10.30
2018-05-10T04:48:35.813Z,10.30
2018-05-10T04:51:03.348Z,10.40
2018-05-10T04:53:30.874Z,10.50
2018-05-10T04:55:59.225Z,10.60
2018-05-10T04:58:26.830Z,10.50
2018-05-10T05:00:54.346Z,10.60
2018-05-10T05:03:21.947Z,10.70
2018-05-10T05:05:49.476Z,10.70
2018-05-10T05:08:17.762Z,10.90
2018-05-10T05:10:46.051Z,10.90
2018-05-10T05:13:13.570Z,10.90
2018-05-10T05:15:41.123Z,11.00
2018-05-10T05:18:08.637Z,11.00
2018-05-10T05:20:36.262Z,11.00
2018-05-10T05:23:05.192Z,11.10
2018-05-10T05:25:32.717Z,11.10
2018-05-10T05:28:01.032Z,11.30
2018-05-10T05:30:28.585Z,11.30
2018-05-10T05:33:00.323Z,11.30
2018-05-10T05:35:27.907Z,11.30
2018-05-10T05:37:55.430Z,11.30
2018-05-10T05:40:23.735Z,11.40
2018-05-10T05:42:51.397Z,11.40
2018-05-10T05:45:19.663Z,11.40
2018-05-10T05:47:47.252Z,11.40
2018-05-10T05:50:16.851Z,11.50
2018-05-10T05:52:44.453Z,11.60
2018-05-10T05:55:11.960Z,11.70
2018-05-10T05:57:39.486Z,11.70
2018-05-10T06:00:07.790Z,11.90
2018-05-10T06:02:35.304Z,11.90
2018-05-10T06:05:02.841Z,12.00
2018-05-10T06:07:30.458Z,12.20
2018-05-10T06:09:57.955Z,12.20
2018-05-10T06:12:25.469Z,12.30
2018-05-10T06:14:52.985Z,12.50
2018-05-10T06:17:20.514Z,12.60
2018-05-10T06:19:48.006Z,12.70
2018-05-10T06:22:15.503Z,12.90
2018-05-10T06:24:43.792Z,13.30
2018-05-10T06:27:12.028Z,13.30
2018-05-10T06:29:39.534Z,13.40
2018-05-10T06:32:07.051Z,13.60
2018-05-10T06:34:34.533Z,13.80
2018-05-10T06:37:02.022Z,14.00
2018-05-10T06:39:29.544Z,14.10
2018-05-10T06:41:57.864Z,14.50
2018-05-10T06:44:25.378Z,14.50
2018-05-10T06:46:53.700Z,14.90
2018-05-10T06:49:21.182Z,14.90
2018-05-10T06:51:48.678Z,15.00
2018-05-10T06:54:16.180Z,15.20
2018-05-10T06:56:43.683Z,15.40
2018-05-10T06:59:11.951Z,15.90
2018-05-10T07:01:39.458Z,15.90
2018-05-10T07:04:06.940Z,16.20
2018-05-10T07:06:34.430Z,16.50
2018-05-10T07:09:02.781Z,16.90
2018-05-10T07:11:30.270Z,16.90
2018-05-10T07:13:58.526Z,17.00
2018-05-10T07:16:26.140Z,17.00
2018-05-10T07:18:53.622Z,16.90
2018-05-10T07:21:21.117Z,17.00
2018-05-10T07:23:49.396Z,17.60
2018-05-10T07:26:17.650Z,18.30
2018-05-10T07:28:45.154Z,18.30
2018-05-10T07:31:12.653Z,19.20
2018-05-10T07:33:40.168Z,19.60
2018-05-10T07:36:07.660Z,20.60
2018-05-10T07:38:35.143Z,22.20
2018-05-10T07:41:03.409Z,22.90
2018-05-10T07:43:30.975Z,22.90
2018-05-10T07:45:59.240Z,23.80
2018-05-10T07:48:26.735Z,23.80
2018-05-10T07:50:54.996Z,23.20
2018-05-10T07:53:22.495Z,23.20
2018-05-10T07:55:50.009Z,24.10
2018-05-10T07:58:17.566Z,24.60
2018-05-10T08:00:45.828Z,25.00
2018-05-10T08:03:13.328Z,25.00
2018-05-10T08:05:40.809Z,25.00
2018-05-10T08:08:08.293Z,25.10
2018-05-10T08:10:35.793Z,25.00
2018-05-10T08:13:04.059Z,24.50
2018-05-10T08:15:32.313Z,24.30
2018-05-10T08:18:01.325Z,24.30
2018-05-10T08:20:29.581Z,23.80
2018-05-10T08:22:57.094Z,23.80
2018-05-10T08:25:24.572Z,23.20
2018-05-10T08:27:52.074Z,22.50
2018-05-10T08:30:20.456Z,22.60
2018-05-10T08:32:47.886Z,22.60
2018-05-10T08:35:15.471Z,22.90
2018-05-10T08:37:42.970Z,23.30
2018-05-10T08:40:10.472Z,22.90
2018-05-10T08:42:37.972Z,22.70
2018-05-10T08:45:05.568Z,22.30
2018-05-10T08:47:32.970Z,23.00
2018-05-10T08:50:01.243Z,23.10
2018-05-10T08:52:29.497Z,23.50
2018-05-10T08:54:58.515Z,24.00
2018-05-10T08:57:26.787Z,24.40
2018-05-10T08:59:55.147Z,25.50
2018-05-10T09:02:23.352Z,26.40
2018-05-10T09:04:51.606Z,27.30
2018-05-10T09:07:19.129Z,27.30
2018-05-10T09:09:46.609Z,27.70
2018-05-10T09:12:14.107Z,27.80
2018-05-10T09:14:41.615Z,27.60
2018-05-10T09:17:09.120Z,27.60
2018-05-10T09:19:37.436Z,26.10
2018-05-10T09:22:04.929Z,26.00
2018-05-10T09:24:32.416Z,25.30
2018-05-10T09:27:00.690Z,24.80
2018-05-10T09:29:29.091Z,24.30
2018-05-10T09:31:56.597Z,24.30
2018-05-10T09:34:24.865Z,24.10
2018-05-10T09:36:53.874Z,23.90
2018-05-10T09:39:22.284Z,23.20
2018-05-10T09:41:51.246Z,23.30
2018-05-10T09:44:18.760Z,23.30
2018-05-10T09:46:46.259Z,23.00
2018-05-10T09:49:13.755Z,22.80
2018-05-10T09:51:41.267Z,22.80
2018-05-10T09:54:08.791Z,22.80
2018-05-10T09:56:36.314Z,22.70
2018-05-10T09:59:04.657Z,23.40
2018-05-10T10:01:32.137Z,23.40
2018-05-10T10:04:00.440Z,24.90
2018-05-10T10:06:27.925Z,24.80
2018-05-10T10:08:55.432Z,25.50
2018-05-10T10:11:23.697Z,26.70
2018-05-10T10:13:51.202Z,26.70
2018-05-10T10:16:18.696Z,27.00
2018-05-10T10:18:46.216Z,27.40
2018-05-10T10:21:13.714Z,27.80
2018-05-10T10:23:41.216Z,27.70
2018-05-10T10:26:08.709Z,27.80
2018-05-10T10:28:36.201Z,26.90
2018-05-10T10:31:04.469Z,27.10
2018-05-10T10:33:31.950Z,27.10
2018-05-10T10:36:00.239Z,26.80
2018-05-10T10:38:28.509Z,26.40
2018-05-10T10:40:56.772Z,26.30
2018-05-10T10:43:24.298Z,26.20
2018-05-10T10:45:51.801Z,25.40
2018-05-10T10:48:20.078Z,24.30
2018-05-10T10:50:48.363Z,24.20
2018-05-10T10:53:15.861Z,24.20
2018-05-10T10:55:43.390Z,24.00
2018-05-10T10:58:10.873Z,23.90
2018-05-10T11:00:38.629Z,24.00
2018-05-10T11:03:06.166Z,23.60
2018-05-10T11:05:33.658Z,23.30
2018-05-10T11:08:01.152Z,22.80
2018-05-10T11:10:29.411Z,22.90
2018-05-10T11:12:56.913Z,22.90
2018-05-10T11:15:24.440Z,22.40
2018-05-10T11:17:51.997Z,21.90
2018-05-10T11:20:19.525Z,22.20
2018-05-10T11:22:47.054Z,22.40
2018-05-10T11:25:14.591Z,22.50
2018-05-10T11:27:42.853Z,22.60
2018-05-10T11:30:10.411Z,22.60
2018-05-10T11:32:37.892Z,22.90
2018-05-10T11:35:06.167Z,22.60
2018-05-10T11:37:34.437Z,22.60
2018-05-10T11:40:01.957Z,22.60
2018-05-10T11:42:29.492Z,22.60
2018-05-10T11:44:56.984Z,22.30
2018-05-10T11:47:24.493Z,22.50
2018-05-10T11:49:52.017Z,22.30
2018-05-10T11:52:20.472Z,21.80
2018-05-10T11:54:48.023Z,21.80
2018-05-10T11:57:15.588Z,22.10
2018-05-10T11:59:43.066Z,22.40
2018-05-10T12:02:10.754Z,22.90
2018-05-10T12:04:39.030Z,23.60
2018-05-10T12:07:07.452Z,23.90
2018-05-10T12:12:18.755Z,23.90
2018-05-10T12:14:46.310Z,24.00
2018-05-10T12:17:15.272Z,24.00
2018-05-10T12:19:46.352Z,23.30
2018-05-10T12:22:13.999Z,23.30
2018-05-10T12:24:41.586Z,23.00
2018-05-10T12:27:09.076Z,22.90
2018-05-10T12:29:37.399Z,23.10
2018-05-10T12:32:04.887Z,23.10
2018-05-10T12:34:32.384Z,23.20
2018-05-10T12:36:59.905Z,23.00
2018-05-10T12:39:27.405Z,23.20
2018-05-10T12:41:54.908Z,23.20
2018-05-10T12:44:22.397Z,23.20
2018-05-10T12:46:49.899Z,22.40
2018-05-10T12:49:17.414Z,22.70
2018-05-10T12:51:45.739Z,22.70
2018-05-10T12:54:13.248Z,22.70
2018-05-10T12:56:41.502Z,22.40
2018-05-10T12:59:09.019Z,22.40
2018-05-10T13:01:36.526Z,22.40
2018-05-10T13:04:05.543Z,22.10
2018-05-10T13:06:33.842Z,21.90
2018-05-10T13:09:01.337Z,21.90
2018-05-10T13:11:28.860Z,21.80
2018-05-10T13:13:56.347Z,21.90
2018-05-10T13:16:23.887Z,21.90
2018-05-10T13:18:51.385Z,21.90
2018-05-10T13:21:18.907Z,22.00
2018-05-10T13:23:46.393Z,22.20
2018-05-10T13:26:13.883Z,22.60
2018-05-10T13:28:42.161Z,22.90
2018-05-10T13:31:10.431Z,23.10
2018-05-10T13:33:38.714Z,22.90
2018-05-10T13:36:06.197Z,22.90
2018-05-10T13:38:33.763Z,22.60
2018-05-10T13:41:01.288Z,22.60
2018-05-10T13:43:28.801Z,22.90
2018-05-10T13:45:56.327Z,23.50
2018-05-10T13:48:23.827Z,23.70
2018-05-10T13:50:51.454Z,24.50
2018-05-10T13:53:18.969Z,24.40
2018-05-10T13:55:47.248Z,25.10
2018-05-10T13:58:15.540Z,25.40
2018-05-10T14:00:43.981Z,25.10
2018-05-10T14:03:11.477Z,25.10
2018-05-10T14:05:39.800Z,23.90
2018-05-10T14:08:07.296Z,23.90
2018-05-10T14:10:35.602Z,23.90
2018-05-10T14:13:03.122Z,23.90
2018-05-10T14:15:32.255Z,23.50
2018-05-10T14:17:59.762Z,23.50
2018-05-10T14:20:27.267Z,22.70
2018-05-10T14:22:54.809Z,22.50
2018-05-10T14:25:23.076Z,22.00
2018-05-10T14:27:51.436Z,21.70
2018-05-10T14:30:19.002Z,21.70
2018-05-10T14:32:46.483Z,21.40
2018-05-10T14:35:14.008Z,21.10
2018-05-10T14:37:41.558Z,21.00
2018-05-10T14:40:09.050Z,21.00
2018-05-10T14:42:36.584Z,20.90
2018-05-10T14:45:04.132Z,20.70
2018-05-10T14:47:31.929Z,20.50
2018-05-10T14:50:00.245Z,19.30
2018-05-10T14:52:27.807Z,19.20
2018-05-10T14:54:55.309Z,19.20
2018-05-10T14:57:23.791Z,19.30
2018-05-10T14:59:51.319Z,18.90
2018-05-10T15:02:18.822Z,18.40
2018-05-10T15:04:47.336Z,18.00
2018-05-10T15:07:14.830Z,17.90
2018-05-10T15:09:42.370Z,18.10
2018-05-10T15:12:09.886Z,18.20
2018-05-10T15:14:38.184Z,18.00
2018-05-10T15:17:05.763Z,18.00
2018-05-10T15:19:33.366Z,17.80
2018-05-10T15:22:00.994Z,17.70
2018-05-10T15:24:28.563Z,17.70
2018-05-10T15:26:56.133Z,17.30
2018-05-10T15:29:23.677Z,17.50
2018-05-10T15:31:52.516Z,17.20
2018-05-10T15:34:20.789Z,16.40
2018-05-10T15:36:49.132Z,16.70
2018-05-10T15:39:16.678Z,16.70
2018-05-10T15:41:44.181Z,16.50
2018-05-10T15:44:12.545Z,16.60
2018-05-10T15:46:40.049Z,16.60
2018-05-10T15:49:07.982Z,16.80
2018-05-10T15:51:39.609Z,16.60
2018-05-10T15:54:09.421Z,16.60
2018-05-10T15:56:49.641Z,16.80
2018-05-10T15:59:17.166Z,16.70
2018-05-10T16:01:45.420Z,17.00
2018-05-10T16:04:12.900Z,17.00
2018-05-10T16:06:41.315Z,17.00
2018-05-10T16:09:08.789Z,17.00
2018-05-10T16:11:36.330Z,17.50
2018-05-10T16:14:03.832Z,17.70
2018-05-10T16:16:31.343Z,17.40
2018-05-10T16:18:59.157Z,17.70
2018-05-10T16:21:26.905Z,17.70
2018-05-10T16:23:54.416Z,17.70
2018-05-10T16:26:24.039Z,17.40
2018-05-10T16:28:51.555Z,17.40
2018-05-10T16:31:19.064Z,17.70
2018-05-10T16:33:46.549Z,17.80
2018-05-10T16:36:14.073Z,18.00
2018-05-10T16:38:41.571Z,17.90
2018-05-10T16:41:09.658Z,17.80
2018-05-10T16:43:45.478Z,17.90
2018-05-10T16:46:12.982Z,17.90
2018-05-10T16:48:41.300Z,17.90
2018-05-10T16:51:08.791Z,17.90
2018-05-10T16:53:36.289Z,17.90
2018-05-10T16:56:04.594Z,17.60
2018-05-10T16:58:33.124Z,17.60
2018-05-10T17:01:00.654Z,17.70
2018-05-10T17:03:28.150Z,17.80
2018-05-10T17:05:56.481Z,17.90
2018-05-10T17:08:24.016Z,17.90
2018-05-10T17:10:51.509Z,17.80
2018-05-10T17:13:19.154Z,17.90
2018-05-10T17:15:46.644Z,17.70
2018-05-10T17:18:14.939Z,17.50
2018-05-10T17:20:43.328Z,17.40
2018-05-10T17:23:11.643Z,17.30
2018-05-10T17:25:39.204Z,17.30
2018-05-10T17:28:06.702Z,17.10
2018-05-10T17:30:34.244Z,17.10
2018-05-10T17:33:01.748Z,17.20
2018-05-10T17:35:29.321Z,17.00
2018-05-10T17:37:56.909Z,17.00
2018-05-10T17:40:25.418Z,17.00
2018-05-10T17:42:52.905Z,16.90
2018-05-10T17:45:20.566Z,16.90
2018-05-10T17:47:48.077Z,16.80
2018-05-10T17:50:15.575Z,16.80
2018-05-10T17:52:43.855Z,16.60
2018-05-10T17:55:12.110Z,16.60
2018-05-10T17:57:40.419Z,16.50
2018-05-10T18:00:07.900Z,16.40
2018-05-10T18:02:35.413Z,16.40
2018-05-10T18:05:03.699Z,16.30
2018-05-10T18:07:31.993Z,16.30
2018-05-10T18:09:59.496Z,16.20
2018-05-10T18:12:27.022Z,16.30
2018-05-10T18:14:54.568Z,16.20
2018-05-10T18:17:22.028Z,16.20
2018-05-10T18:19:50.040Z,16.10
2018-05-10T18:22:18.093Z,16.10
2018-05-10T18:24:45.615Z,15.90
2018-05-10T18:27:13.865Z,15.90
2018-05-10T18:29:41.361Z,15.90
2018-05-10T18:32:08.882Z,15.90
2018-05-10T18:34:37.172Z,15.90
2018-05-10T18:37:06.631Z,15.90
2018-05-10T18:39:34.123Z,15.80
2018-05-10T18:42:02.403Z,15.80
2018-05-10T18:44:30.682Z,15.70
2018-05-10T18:46:59.128Z,15.80
2018-05-10T18:49:26.610Z,15.80
2018-05-10T18:51:54.135Z,15.80
2018-05-10T18:54:21.608Z,15.70
2018-05-10T18:56:49.130Z,15.60
2018-05-10T18:59:16.644Z,15.40
2018-05-10T19:01:44.230Z,15.40
2018-05-10T19:04:11.747Z,15.20
2018-05-10T19:06:39.251Z,15.30
2018-05-10T19:09:06.759Z,15.10
2018-05-10T19:11:34.279Z,14.80
2018-05-10T19:14:01.800Z,14.80
2018-05-10T19:16:30.061Z,14.70
2018-05-10T19:18:57.572Z,14.70
2018-05-10T19:21:25.087Z,14.80
2018-05-10T19:23:52.636Z,14.70
2018-05-10T19:26:20.172Z,14.60
2018-05-10T19:28:48.392Z,14.40
2018-05-10T19:31:16.670Z,14.40
2018-05-10T19:33:44.943Z,14.20
2018-05-10T19:36:13.214Z,14.20
2018-05-10T19:38:40.702Z,14.10
2018-05-10T19:41:08.192Z,14.20
2018-05-10T19:43:35.673Z,14.20
2018-05-10T19:46:03.181Z,14.20
2018-05-10T19:48:30.698Z,14.20
2018-05-10T19:50:58.188Z,14.10
2018-05-10T19:53:25.684Z,14.10
2018-05-10T19:55:53.430Z,14.00
2018-05-10T19:58:21.084Z,13.90
2018-05-10T20:00:48.578Z,13.80
2018-05-10T20:03:16.245Z,13.70
2018-05-10T20:05:44.933Z,13.70
2018-05-10T20:08:13.210Z,13.60
2018-05-10T20:10:41.959Z,13.50
2018-05-10T20:13:09.937Z,13.50
2018-05-10T20:15:37.589Z,13.50
2018-05-10T20:18:05.994Z,13.30
2018-05-10T20:20:33.663Z,13.30
2018-05-10T20:23:01.169Z,13.10
2018-05-10T20:25:28.702Z,12.90
2018-05-10T20:27:56.261Z,12.90
2018-05-10T20:30:24.769Z,12.90
2018-05-10T20:32:52.261Z,12.90
2018-05-10T20:35:19.764Z,13.00
2018-05-10T20:37:48.026Z,12.90
2018-05-10T20:40:15.509Z,12.90
2018-05-10T20:42:43.803Z,12.40
2018-05-10T20:45:11.295Z,12.40
2018-05-10T20:47:38.802Z,12.30
2018-05-10T20:50:07.063Z,12.20
2018-05-10T20:52:35.334Z,12.10
2018-05-10T20:55:02.851Z,12.10
2018-05-10T20:57:30.370Z,11.90
2018-05-10T20:59:58.618Z,12.00
2018-05-10T21:02:26.133Z,11.90
2018-05-10T21:04:53.674Z,12.00
2018-05-10T21:10:13.145Z,11.90
2018-05-10T21:12:42.615Z,11.90
2018-05-10T21:15:10.110Z,11.70
2018-05-10T21:17:38.380Z,11.50
2018-05-10T21:20:06.642Z,11.60
2018-05-10T21:22:34.912Z,11.50
2018-05-10T21:25:02.418Z,11.50
2018-05-10T21:27:29.922Z,11.50
2018-05-10T21:29:57.494Z,11.50
2018-05-10T21:32:24.977Z,11.50
2018-05-10T21:34:53.230Z,11.50
2018-05-10T21:37:20.752Z,11.40
2018-05-10T21:39:48.238Z,11.30
2018-05-10T21:42:15.745Z,11.40
2018-05-10T21:44:43.375Z,11.40
2018-05-10T21:47:10.821Z,11.50
2018-05-10T21:49:50.226Z,11.50
2018-05-10T21:52:17.737Z,11.40
2018-05-10T21:54:46.083Z,11.00
2018-05-10T21:57:13.589Z,11.00
2018-05-10T21:59:41.069Z,11.00
2018-05-10T22:02:08.572Z,11.00
2018-05-10T22:04:36.083Z,10.90
2018-05-10T22:07:03.560Z,10.90
2018-05-10T22:09:31.072Z,10.90
2018-05-10T22:11:58.571Z,10.80
2018-05-10T22:14:26.065Z,10.80
2018-05-10T22:16:53.543Z,10.80
2018-05-10T22:19:21.049Z,10.60
2018-05-10T22:21:48.538Z,10.70
2018-05-10T22:24:16.782Z,10.50
2018-05-10T22:26:44.295Z,10.50
2018-05-10T22:29:11.781Z,10.60
2018-05-10T22:31:39.346Z,10.70
2018-05-10T22:34:06.843Z,10.70
2018-05-10T22:36:34.337Z,10.60
2018-05-10T22:39:01.835Z,10.70
2018-05-10T22:41:29.344Z,10.60
2018-05-10T22:43:57.619Z,10.60
2018-05-10T22:46:25.911Z,10.60
2018-05-10T22:48:53.407Z,10.60
2018-05-10T22:51:20.915Z,10.50
2018-05-10T22:53:48.405Z,10.50
2018-05-10T22:56:15.885Z,10.50
2018-05-10T22:58:43.393Z,10.60
2018-05-10T23:01:10.882Z,10.60
2018-05-10T23:03:38.389Z,10.60
2018-05-10T23:06:06.652Z,10.70
2018-05-10T23:08:34.175Z,10.70
2018-05-10T23:11:01.674Z,10.60
2018-05-10T23:13:29.925Z,10.70
2018-05-10T23:15:57.434Z,10.70
2018-05-10T23:18:25.764Z,10.80
2018-05-10T23:20:53.378Z,10.80
2018-05-10T23:23:20.868Z,10.70
2018-05-10T23:25:48.364Z,10.60
2018-05-10T23:28:16.606Z,10.70
2018-05-10T23:30:44.127Z,10.70
2018-05-10T23:33:11.623Z,10.70
2018-05-10T23:35:39.208Z,10.70
2018-05-10T23:38:06.652Z,10.60
2018-05-10T23:40:34.134Z,10.70
2018-05-10T23:43:02.393Z,10.60
2018-05-10T23:45:31.465Z,10.70
2018-05-10T23:47:58.975Z,10.70
2018-05-10T23:50:26.460Z,10.70
2018-05-10T23:52:53.957Z,10.70
2018-05-10T23:55:21.463Z,10.70
2018-05-10T23:57:49.005Z,10.60
